KLM69H EHAM-EFHK
Flight info
| Callsign | KLM69H |
|---|---|
| Flight time | N/A |
| Altitude | 35000 |
| Route | ANDIK N873 JUIST DCT DOSUR DCT RASMU DCT ROGMI DCT ALAMI DCT OKEVU DCT EVADI Y370 DIVAM |
| Aircraft | B738/M-SDE2E3FGHIRWXY/LB1 |
Departure
| Time | 2026-05-04 13:14 |
|---|---|
| Airport | Amsterdam Airport Schiphol (EHAM) |
Arrival
| Time | N/A |
|---|---|
| Airport | Helsinki Vantaa Airport (EFHK) |
| Time | Latitude | Longitude | Altitude | Speed | Heading |
|---|---|---|---|---|---|
| 2026-05-04 12:55 | 52.31357 | 4.75589 | -5 ft | 0 kts | 86° |
| 2026-05-04 13:05 | 52.31357 | 4.75588 | -5 ft | 3 kts | 86° |
| 2026-05-04 13:05 | 52.31355 | 4.75544 | -5 ft | 4 kts | 85° |
| 2026-05-04 13:05 | 52.31352 | 4.75501 | -4 ft | 4 kts | 82° |
| 2026-05-04 13:06 | 52.31348 | 4.75469 | -4 ft | 2 kts | 62° |
| 2026-05-04 13:06 | 52.31341 | 4.75454 | -4 ft | 2 kts | 22° |
| 2026-05-04 13:06 | 52.31330 | 4.75450 | -3 ft | 2 kts | 0° |
| 2026-05-04 13:06 | 52.31321 | 4.75451 | -3 ft | 0 kts | 357° |
| 2026-05-04 13:08 | 52.31346 | 4.75448 | -4 ft | 9 kts | 357° |
| 2026-05-04 13:08 | 52.31416 | 4.75397 | -5 ft | 12 kts | 295° |
| 2026-05-04 13:08 | 52.31422 | 4.75261 | -4 ft | 12 kts | 267° |
| 2026-05-04 13:09 | 52.31417 | 4.75096 | -7 ft | 15 kts | 268° |
| 2026-05-04 13:09 | 52.31412 | 4.74933 | -4 ft | 14 kts | 267° |
| 2026-05-04 13:09 | 52.31408 | 4.74776 | -1 ft | 14 kts | 268° |
| 2026-05-04 13:09 | 52.31402 | 4.74625 | -2 ft | 13 kts | 267° |
| 2026-05-04 13:10 | 52.31398 | 4.74479 | -3 ft | 13 kts | 268° |
| 2026-05-04 13:10 | 52.31393 | 4.74337 | -2 ft | 12 kts | 267° |
| 2026-05-04 13:10 | 52.31385 | 4.74200 | -1 ft | 12 kts | 252° |
| 2026-05-04 13:10 | 52.31320 | 4.74128 | -3 ft | 12 kts | 184° |
| 2026-05-04 13:11 | 52.31237 | 4.74122 | -4 ft | 13 kts | 183° |
| 2026-05-04 13:11 | 52.31137 | 4.74111 | -5 ft | 16 kts | 184° |
| 2026-05-04 13:11 | 52.31027 | 4.74100 | -6 ft | 16 kts | 184° |
| 2026-05-04 13:11 | 52.30920 | 4.74092 | -6 ft | 15 kts | 183° |
| 2026-05-04 13:12 | 52.30820 | 4.74083 | -6 ft | 14 kts | 184° |
| 2026-05-04 13:12 | 52.30722 | 4.74073 | -5 ft | 14 kts | 183° |
| 2026-05-04 13:12 | 52.30630 | 4.74053 | -3 ft | 13 kts | 204° |
| 2026-05-04 13:12 | 52.30618 | 4.73931 | -3 ft | 13 kts | 311° |
| 2026-05-04 13:13 | 52.30693 | 4.73859 | -4 ft | 12 kts | 334° |
| 2026-05-04 13:13 | 52.30773 | 4.73807 | -2 ft | 12 kts | 344° |
| 2026-05-04 13:13 | 52.30856 | 4.73795 | -2 ft | 12 kts | 3° |
| 2026-05-04 13:13 | 52.31053 | 4.73813 | -1 ft | 61 kts | 3° |
| 2026-05-04 13:14 | 52.31723 | 4.73875 | -4 ft | 129 kts | 3° |
| 2026-05-04 13:14 | 52.32797 | 4.74017 | 146 ft | 170 kts | 4° |
| 2026-05-04 13:14 | 52.33958 | 4.74219 | 1058 ft | 166 kts | 11° |
| 2026-05-04 13:14 | 52.35056 | 4.74991 | 1753 ft | 178 kts | 26° |
| 2026-05-04 13:15 | 52.36271 | 4.75909 | 2120 ft | 207 kts | 22° |
| 2026-05-04 13:15 | 52.37680 | 4.76894 | 2347 ft | 233 kts | 26° |
| 2026-05-04 13:15 | 52.38991 | 4.78670 | 2628 ft | 258 kts | 47° |
| 2026-05-04 13:15 | 52.40197 | 4.80800 | 3363 ft | 265 kts | 46° |
| 2026-05-04 13:16 | 52.41501 | 4.83009 | 4304 ft | 266 kts | 45° |
| 2026-05-04 13:16 | 52.42778 | 4.85034 | 5056 ft | 272 kts | 36° |
| 2026-05-04 13:16 | 52.44518 | 4.86205 | 5874 ft | 272 kts | 6° |
| 2026-05-04 13:16 | 52.46409 | 4.86219 | 6701 ft | 274 kts | 355° |
| 2026-05-04 13:17 | 52.48306 | 4.86002 | 7403 ft | 280 kts | 354° |
| 2026-05-04 13:17 | 52.50260 | 4.85777 | 8181 ft | 283 kts | 355° |
| 2026-05-04 13:17 | 52.52240 | 4.85604 | 8959 ft | 287 kts | 1° |
| 2026-05-04 13:17 | 52.54161 | 4.86508 | 9706 ft | 293 kts | 31° |
| 2026-05-04 13:18 | 52.55731 | 4.88669 | 10370 ft | 301 kts | 47° |
| 2026-05-04 13:18 | 52.57107 | 4.91427 | 10575 ft | 324 kts | 52° |
| 2026-05-04 13:18 | 52.58512 | 4.94480 | 10868 ft | 342 kts | 53° |
| 2026-05-04 13:18 | 52.59967 | 4.97638 | 11464 ft | 349 kts | 52° |
| 2026-05-04 13:19 | 52.61467 | 5.00827 | 12170 ft | 353 kts | 51° |
| 2026-05-04 13:19 | 52.62990 | 5.04036 | 12884 ft | 357 kts | 51° |
| 2026-05-04 13:19 | 52.64534 | 5.07274 | 13592 ft | 362 kts | 51° |
| 2026-05-04 13:19 | 52.66098 | 5.10551 | 14225 ft | 366 kts | 51° |
| 2026-05-04 13:20 | 52.67680 | 5.13869 | 14863 ft | 370 kts | 51° |
| 2026-05-04 13:20 | 52.69273 | 5.17216 | 15499 ft | 373 kts | 51° |
| 2026-05-04 13:20 | 52.70885 | 5.20604 | 16121 ft | 377 kts | 51° |
| 2026-05-04 13:20 | 52.72509 | 5.24024 | 16740 ft | 381 kts | 51° |
| 2026-05-04 13:21 | 52.74153 | 5.27490 | 17346 ft | 385 kts | 51° |
| 2026-05-04 13:21 | 52.75809 | 5.30988 | 17948 ft | 389 kts | 51° |
| 2026-05-04 13:21 | 52.77485 | 5.34533 | 18508 ft | 393 kts | 51° |
| 2026-05-04 13:21 | 52.79155 | 5.38069 | 18994 ft | 398 kts | 51° |
| 2026-05-04 13:22 | 52.80867 | 5.41698 | 19470 ft | 403 kts | 50° |
| 2026-05-04 13:22 | 52.82599 | 5.45375 | 19942 ft | 408 kts | 50° |
| 2026-05-04 13:22 | 52.84350 | 5.49098 | 20427 ft | 412 kts | 50° |
| 2026-05-04 13:22 | 52.86116 | 5.52861 | 20908 ft | 416 kts | 50° |
| 2026-05-04 13:23 | 52.87901 | 5.56667 | 21372 ft | 421 kts | 50° |
| 2026-05-04 13:23 | 52.89702 | 5.60516 | 21833 ft | 425 kts | 50° |
| 2026-05-04 13:23 | 52.91521 | 5.64408 | 22293 ft | 430 kts | 50° |
| 2026-05-04 13:23 | 52.93358 | 5.68345 | 22753 ft | 434 kts | 50° |
| 2026-05-04 13:24 | 52.95212 | 5.72324 | 23197 ft | 438 kts | 50° |
| 2026-05-04 13:24 | 52.97083 | 5.76348 | 23621 ft | 442 kts | 50° |
| 2026-05-04 13:24 | 52.98969 | 5.80410 | 23984 ft | 446 kts | 50° |
| 2026-05-04 13:25 | 53.02772 | 5.88621 | 24744 ft | 452 kts | 50° |
| 2026-05-04 13:25 | 53.04696 | 5.92786 | 25106 ft | 456 kts | 51° |
| 2026-05-04 13:25 | 53.06627 | 5.96973 | 25454 ft | 459 kts | 51° |
| 2026-05-04 13:25 | 53.08579 | 6.01211 | 25826 ft | 461 kts | 51° |
| 2026-05-04 13:26 | 53.10538 | 6.05469 | 26176 ft | 464 kts | 51° |
| 2026-05-04 13:26 | 53.12506 | 6.09756 | 26523 ft | 467 kts | 51° |
| 2026-05-04 13:26 | 53.14481 | 6.14065 | 26856 ft | 470 kts | 51° |
| 2026-05-04 13:26 | 53.16430 | 6.18326 | 27186 ft | 473 kts | 51° |
| 2026-05-04 13:27 | 53.18447 | 6.22743 | 27541 ft | 476 kts | 51° |
| 2026-05-04 13:27 | 53.20460 | 6.27159 | 27855 ft | 479 kts | 52° |
| 2026-05-04 13:27 | 53.22481 | 6.31601 | 28187 ft | 482 kts | 52° |
| 2026-05-04 13:27 | 53.24510 | 6.36068 | 28503 ft | 484 kts | 52° |
| 2026-05-04 13:28 | 53.26547 | 6.40559 | 28808 ft | 487 kts | 52° |
| 2026-05-04 13:28 | 53.28565 | 6.45020 | 29099 ft | 490 kts | 52° |
| 2026-05-04 13:28 | 53.30658 | 6.49652 | 29387 ft | 492 kts | 52° |
| 2026-05-04 13:28 | 53.32726 | 6.54234 | 29672 ft | 495 kts | 52° |
| 2026-05-04 13:29 | 53.34836 | 6.58791 | 29954 ft | 496 kts | 48° |
| 2026-05-04 13:29 | 53.37245 | 6.62924 | 30177 ft | 497 kts | 41° |
| 2026-05-04 13:29 | 53.39818 | 6.66818 | 30446 ft | 498 kts | 39° |
| 2026-05-04 13:29 | 53.42407 | 6.70664 | 30799 ft | 496 kts | 39° |
| 2026-05-04 13:30 | 53.44974 | 6.74523 | 31214 ft | 494 kts | 40° |
| 2026-05-04 13:30 | 53.47501 | 6.78397 | 31625 ft | 491 kts | 40° |
| 2026-05-04 13:30 | 53.49981 | 6.82243 | 31976 ft | 490 kts | 40° |
| 2026-05-04 13:30 | 53.52482 | 6.86128 | 32295 ft | 489 kts | 40° |
| 2026-05-04 13:31 | 53.54980 | 6.90002 | 32619 ft | 488 kts | 40° |
| 2026-05-04 13:31 | 53.57476 | 6.93897 | 32948 ft | 487 kts | 41° |
| 2026-05-04 13:31 | 53.59906 | 6.97873 | 33315 ft | 486 kts | 43° |
| 2026-05-04 13:31 | 53.62286 | 7.01884 | 33688 ft | 484 kts | 43° |
| 2026-05-04 13:32 | 53.64646 | 7.05913 | 34003 ft | 482 kts | 43° |
| 2026-05-04 13:32 | 53.67001 | 7.09940 | 34266 ft | 481 kts | 43° |
| 2026-05-04 13:32 | 53.69346 | 7.13942 | 34532 ft | 480 kts | 43° |
| 2026-05-04 13:32 | 53.70908 | 7.16601 | 34697 ft | 480 kts | 43° |
| 2026-05-04 13:33 | 53.73259 | 7.20597 | 34922 ft | 479 kts | 43° |
| 2026-05-04 13:33 | 53.75609 | 7.24585 | 35019 ft | 481 kts | 43° |
| 2026-05-04 13:33 | 53.80330 | 7.32604 | 35018 ft | 480 kts | 43° |
| 2026-05-04 13:34 | 53.85020 | 7.40599 | 35015 ft | 477 kts | 43° |
| 2026-05-04 13:34 | 53.89675 | 7.48562 | 35029 ft | 474 kts | 43° |
| 2026-05-04 13:35 | 53.96617 | 7.60487 | 35032 ft | 472 kts | 43° |
| 2026-05-04 13:36 | 54.01197 | 7.68390 | 35030 ft | 472 kts | 43° |
| 2026-05-04 13:36 | 54.05809 | 7.76372 | 35020 ft | 473 kts | 43° |
| 2026-05-04 13:37 | 54.10431 | 7.84399 | 35032 ft | 475 kts | 43° |
| 2026-05-04 13:37 | 54.15054 | 7.92456 | 35025 ft | 476 kts | 43° |
| 2026-05-04 13:38 | 54.19688 | 8.00561 | 35024 ft | 477 kts | 43° |
| 2026-05-04 13:38 | 54.24325 | 8.08697 | 35026 ft | 478 kts | 44° |
| 2026-05-04 13:39 | 54.28963 | 8.16864 | 35025 ft | 478 kts | 44° |
| 2026-05-04 13:39 | 54.33595 | 8.25050 | 35021 ft | 478 kts | 44° |
| 2026-05-04 13:40 | 54.38215 | 8.33240 | 35013 ft | 477 kts | 44° |
| 2026-05-04 13:40 | 54.42817 | 8.41429 | 35013 ft | 476 kts | 44° |
| 2026-05-04 13:41 | 54.47408 | 8.49625 | 35013 ft | 475 kts | 44° |
| 2026-05-04 13:41 | 54.51976 | 8.57808 | 35012 ft | 474 kts | 44° |
| 2026-05-04 13:42 | 54.58760 | 8.70014 | 35005 ft | 472 kts | 44° |
| 2026-05-04 13:42 | 54.63328 | 8.78268 | 35005 ft | 471 kts | 44° |
| 2026-05-04 13:43 | 54.67816 | 8.86406 | 35005 ft | 470 kts | 44° |
| 2026-05-04 13:43 | 54.72347 | 8.94650 | 34999 ft | 470 kts | 44° |
| 2026-05-04 13:44 | 54.76811 | 9.02801 | 34995 ft | 469 kts | 44° |
| 2026-05-04 13:44 | 54.81298 | 9.11022 | 34995 ft | 469 kts | 44° |
| 2026-05-04 13:45 | 54.85778 | 9.19270 | 34990 ft | 470 kts | 46° |
| 2026-05-04 13:45 | 54.89919 | 9.28077 | 34998 ft | 471 kts | 50° |
| 2026-05-04 13:46 | 54.93906 | 9.37126 | 34992 ft | 472 kts | 51° |
| 2026-05-04 13:46 | 54.97891 | 9.46183 | 34990 ft | 472 kts | 50° |
| 2026-05-04 13:47 | 55.01910 | 9.55253 | 34993 ft | 472 kts | 50° |
| 2026-05-04 13:47 | 55.05930 | 9.64313 | 34991 ft | 472 kts | 50° |
| 2026-05-04 13:48 | 55.09947 | 9.73395 | 34993 ft | 472 kts | 50° |
| 2026-05-04 13:48 | 55.13955 | 9.82490 | 34984 ft | 472 kts | 50° |
| 2026-05-04 13:49 | 55.17949 | 9.91591 | 34982 ft | 472 kts | 50° |
| 2026-05-04 13:49 | 55.21914 | 10.00660 | 34975 ft | 471 kts | 50° |
| 2026-05-04 13:50 | 55.25893 | 10.09794 | 34963 ft | 472 kts | 50° |
| 2026-05-04 13:50 | 55.29867 | 10.18950 | 34965 ft | 471 kts | 51° |
| 2026-05-04 13:51 | 55.33819 | 10.28093 | 34967 ft | 471 kts | 51° |
| 2026-05-04 13:51 | 55.37792 | 10.37315 | 34968 ft | 472 kts | 51° |
| 2026-05-04 13:52 | 55.43720 | 10.51141 | 34967 ft | 472 kts | 51° |
| 2026-05-04 13:53 | 55.47665 | 10.60386 | 34965 ft | 472 kts | 51° |
| 2026-05-04 13:53 | 55.51605 | 10.69654 | 34958 ft | 472 kts | 51° |
| 2026-05-04 13:54 | 55.57499 | 10.83585 | 34950 ft | 472 kts | 51° |
| 2026-05-04 13:55 | 55.63378 | 10.97557 | 34941 ft | 472 kts | 51° |
| 2026-05-04 13:55 | 55.69209 | 11.11497 | 34940 ft | 472 kts | 51° |
| 2026-05-04 13:56 | 55.73106 | 11.20855 | 34940 ft | 472 kts | 51° |
| 2026-05-04 13:57 | 55.78947 | 11.34953 | 34936 ft | 472 kts | 51° |
| 2026-05-04 13:58 | 55.86704 | 11.53799 | 34932 ft | 472 kts | 51° |
| 2026-05-04 13:58 | 55.92507 | 11.67994 | 34926 ft | 472 kts | 51° |
| 2026-05-04 13:59 | 55.96366 | 11.77480 | 34932 ft | 472 kts | 52° |